Terminal Aerodrome Forecast
Issued by NWS San Angelo, TX

Home | Current Version | Previous Version | Text Only | Print | Product List | Glossary On
Versions: 1 2 3 4 5 6 7 8 9 10 11 12 13 14 15 16 17 18 19
000
FTUS44 KSJT 190500 AAA
TAFSJT
TAF AMD
KSJT 190559Z 1906/2006 11005KT P6SM VCSH SCT012 BKN100
      TEMPO 1906/1908 4SM RA BKN012
     FM191500 16010KT P6SM SCT025 BKN050
     FM192000 16010KT P6SM SCT050 BKN100=

USA.gov is the U.S. government's official web portal to all federal, state and local government web resources and services.